sensor_id;sensor_type;location;lat;lon;timestamp;P1;durP1;ratioP1;P2;durP2;ratioP2
60859;SDS011;46694;54.382;9.708;2023-07-31T00:00:39;5.60;;;2.80;;
60859;SDS011;46694;54.382;9.708;2023-07-31T00:03:19;8.23;;;2.40;;
60859;SDS011;46694;54.382;9.708;2023-07-31T00:05:58;8.53;;;2.73;;
60859;SDS011;46694;54.382;9.708;2023-07-31T00:08:38;17.23;;;3.00;;
60859;SDS011;46694;54.382;9.708;2023-07-31T00:11:18;9.70;;;2.90;;
60859;SDS011;46694;54.382;9.708;2023-07-31T00:13:57;5.87;;;2.73;;
60859;SDS011;46694;54.382;9.708;2023-07-31T00:16:37;6.00;;;3.03;;
60859;SDS011;46694;54.382;9.708;2023-07-31T00:19:17;11.67;;;2.47;;
60859;SDS011;46694;54.382;9.708;2023-07-31T00:21:56;7.47;;;2.77;;
60859;SDS011;46694;54.382;9.708;2023-07-31T00:24:36;6.67;;;2.60;;
60859;SDS011;46694;54.382;9.708;2023-07-31T00:27:15;6.40;;;2.30;;
60859;SDS011;46694;54.382;9.708;2023-07-31T00:29:55;22.07;;;3.30;;
60859;SDS011;46694;54.382;9.708;2023-07-31T00:32:34;9.90;;;3.00;;
60859;SDS011;46694;54.382;9.708;2023-07-31T00:35:13;6.07;;;1.90;;
60859;SDS011;46694;54.382;9.708;2023-07-31T00:37:53;6.97;;;2.47;;
60859;SDS011;46694;54.382;9.708;2023-07-31T00:40:47;6.70;;;2.30;;
60859;SDS011;46694;54.382;9.708;2023-07-31T00:43:26;8.83;;;1.77;;
60859;SDS011;46694;54.382;9.708;2023-07-31T00:46:06;7.70;;;1.97;;
60859;SDS011;46694;54.382;9.708;2023-07-31T00:48:46;3.13;;;2.00;;
60859;SDS011;46694;54.382;9.708;2023-07-31T00:51:26;3.83;;;1.97;;
60859;SDS011;46694;54.382;9.708;2023-07-31T00:54:07;3.03;;;1.70;;
60859;SDS011;46694;54.382;9.708;2023-07-31T00:56:47;9.97;;;2.27;;
60859;SDS011;46694;54.382;9.708;2023-07-31T00:59:27;4.10;;;1.87;;
60859;SDS011;46694;54.382;9.708;2023-07-31T01:02:06;6.53;;;2.20;;
60859;SDS011;46694;54.382;9.708;2023-07-31T01:04:46;8.30;;;2.00;;
60859;SDS011;46694;54.382;9.708;2023-07-31T01:10:27;8.07;;;1.53;;
60859;SDS011;46694;54.382;9.708;2023-07-31T01:13:15;6.03;;;1.80;;
60859;SDS011;46694;54.382;9.708;2023-07-31T01:15:56;4.47;;;1.90;;
60859;SDS011;46694;54.382;9.708;2023-07-31T01:18:36;8.67;;;1.97;;
60859;SDS011;46694;54.382;9.708;2023-07-31T01:27:35;6.03;;;1.67;;
60859;SDS011;46694;54.382;9.708;2023-07-31T01:30:34;7.03;;;1.70;;
60859;SDS011;46694;54.382;9.708;2023-07-31T01:33:22;3.03;;;1.50;;
60859;SDS011;46694;54.382;9.708;2023-07-31T01:36:02;2.50;;;1.27;;
60859;SDS011;46694;54.382;9.708;2023-07-31T01:38:42;3.87;;;1.60;;
60859;SDS011;46694;54.382;9.708;2023-07-31T01:41:22;4.00;;;1.67;;
60859;SDS011;46694;54.382;9.708;2023-07-31T01:44:02;5.07;;;1.80;;
60859;SDS011;46694;54.382;9.708;2023-07-31T01:46:41;5.20;;;1.70;;
60859;SDS011;46694;54.382;9.708;2023-07-31T01:49:21;3.83;;;1.70;;
60859;SDS011;46694;54.382;9.708;2023-07-31T01:52:00;3.37;;;1.83;;
60859;SDS011;46694;54.382;9.708;2023-07-31T01:54:40;4.10;;;1.90;;
60859;SDS011;46694;54.382;9.708;2023-07-31T01:57:20;5.87;;;2.20;;
60859;SDS011;46694;54.382;9.708;2023-07-31T01:59:59;10.07;;;2.30;;
60859;SDS011;46694;54.382;9.708;2023-07-31T02:02:39;6.67;;;2.10;;
60859;SDS011;46694;54.382;9.708;2023-07-31T02:05:18;4.20;;;1.37;;
60859;SDS011;46694;54.382;9.708;2023-07-31T02:07:58;2.93;;;1.40;;
60859;SDS011;46694;54.382;9.708;2023-07-31T02:10:37;5.23;;;1.70;;
60859;SDS011;46694;54.382;9.708;2023-07-31T02:13:17;6.33;;;1.90;;
60859;SDS011;46694;54.382;9.708;2023-07-31T02:15:57;4.03;;;1.37;;
60859;SDS011;46694;54.382;9.708;2023-07-31T02:18:36;5.10;;;1.80;;
60859;SDS011;46694;54.382;9.708;2023-07-31T02:21:16;5.10;;;1.60;;
60859;SDS011;46694;54.382;9.708;2023-07-31T02:23:55;7.00;;;1.77;;
60859;SDS011;46694;54.382;9.708;2023-07-31T02:26:35;3.40;;;2.20;;
60859;SDS011;46694;54.382;9.708;2023-07-31T02:29:14;3.80;;;1.90;;
60859;SDS011;46694;54.382;9.708;2023-07-31T02:31:54;7.50;;;1.93;;
60859;SDS011;46694;54.382;9.708;2023-07-31T02:34:34;8.40;;;2.33;;
60859;SDS011;46694;54.382;9.708;2023-07-31T02:37:13;5.43;;;2.20;;
60859;SDS011;46694;54.382;9.708;2023-07-31T02:39:53;11.23;;;2.50;;
60859;SDS011;46694;54.382;9.708;2023-07-31T02:42:32;8.30;;;2.53;;
60859;SDS011;46694;54.382;9.708;2023-07-31T02:45:12;7.60;;;2.40;;
60859;SDS011;46694;54.382;9.708;2023-07-31T02:47:52;12.47;;;2.63;;
60859;SDS011;46694;54.382;9.708;2023-07-31T02:50:31;10.23;;;3.00;;
60859;SDS011;46694;54.382;9.708;2023-07-31T02:53:11;4.70;;;2.47;;
60859;SDS011;46694;54.382;9.708;2023-07-31T02:55:51;7.70;;;3.60;;
60859;SDS011;46694;54.382;9.708;2023-07-31T02:58:30;17.37;;;3.80;;
60859;SDS011;46694;54.382;9.708;2023-07-31T03:01:10;17.70;;;3.27;;
60859;SDS011;46694;54.382;9.708;2023-07-31T03:03:49;7.23;;;2.80;;
60859;SDS011;46694;54.382;9.708;2023-07-31T03:06:29;9.33;;;3.40;;
60859;SDS011;46694;54.382;9.708;2023-07-31T03:09:09;17.00;;;3.87;;
60859;SDS011;46694;54.382;9.708;2023-07-31T03:11:49;15.73;;;4.93;;
60859;SDS011;46694;54.382;9.708;2023-07-31T03:14:28;18.60;;;5.10;;
60859;SDS011;46694;54.382;9.708;2023-07-31T03:17:08;11.10;;;4.60;;
60859;SDS011;46694;54.382;9.708;2023-07-31T03:19:47;8.67;;;5.20;;
60859;SDS011;46694;54.382;9.708;2023-07-31T03:22:27;11.97;;;4.73;;
60859;SDS011;46694;54.382;9.708;2023-07-31T03:25:07;10.43;;;5.87;;
60859;SDS011;46694;54.382;9.708;2023-07-31T03:27:48;11.43;;;5.83;;
60859;SDS011;46694;54.382;9.708;2023-07-31T03:30:27;12.70;;;5.20;;
60859;SDS011;46694;54.382;9.708;2023-07-31T03:33:07;18.70;;;6.07;;
60859;SDS011;46694;54.382;9.708;2023-07-31T03:35:46;14.83;;;6.10;;
60859;SDS011;46694;54.382;9.708;2023-07-31T03:38:26;18.93;;;5.77;;
60859;SDS011;46694;54.382;9.708;2023-07-31T03:41:06;10.17;;;6.87;;
60859;SDS011;46694;54.382;9.708;2023-07-31T03:43:46;13.27;;;6.00;;
60859;SDS011;46694;54.382;9.708;2023-07-31T03:46:30;18.43;;;6.53;;
60859;SDS011;46694;54.382;9.708;2023-07-31T03:49:09;15.70;;;7.30;;
60859;SDS011;46694;54.382;9.708;2023-07-31T03:51:49;11.77;;;7.10;;
60859;SDS011;46694;54.382;9.708;2023-07-31T03:54:29;13.87;;;8.10;;
60859;SDS011;46694;54.382;9.708;2023-07-31T03:57:08;12.80;;;7.53;;
60859;SDS011;46694;54.382;9.708;2023-07-31T03:59:48;12.00;;;8.10;;
60859;SDS011;46694;54.382;9.708;2023-07-31T04:02:27;17.67;;;8.20;;
60859;SDS011;46694;54.382;9.708;2023-07-31T04:05:07;20.23;;;10.37;;
60859;SDS011;46694;54.382;9.708;2023-07-31T04:07:46;14.93;;;9.30;;
60859;SDS011;46694;54.382;9.708;2023-07-31T04:10:26;21.10;;;9.83;;
60859;SDS011;46694;54.382;9.708;2023-07-31T04:13:06;11.67;;;9.47;;
60859;SDS011;46694;54.382;9.708;2023-07-31T04:15:49;12.27;;;9.20;;
60859;SDS011;46694;54.382;9.708;2023-07-31T04:18:32;15.70;;;10.00;;
60859;SDS011;46694;54.382;9.708;2023-07-31T04:21:12;18.20;;;9.13;;
60859;SDS011;46694;54.382;9.708;2023-07-31T04:23:52;14.03;;;8.70;;
60859;SDS011;46694;54.382;9.708;2023-07-31T04:26:34;14.80;;;9.10;;
60859;SDS011;46694;54.382;9.708;2023-07-31T04:29:14;11.57;;;9.30;;
60859;SDS011;46694;54.382;9.708;2023-07-31T04:31:54;15.67;;;10.17;;
60859;SDS011;46694;54.382;9.708;2023-07-31T04:34:34;13.20;;;9.23;;
60859;SDS011;46694;54.382;9.708;2023-07-31T04:37:13;13.33;;;10.83;;
60859;SDS011;46694;54.382;9.708;2023-07-31T04:39:53;13.70;;;10.30;;
60859;SDS011;46694;54.382;9.708;2023-07-31T04:42:32;15.97;;;10.20;;
60859;SDS011;46694;54.382;9.708;2023-07-31T04:45:14;12.97;;;9.97;;
60859;SDS011;46694;54.382;9.708;2023-07-31T04:47:54;15.60;;;9.80;;
60859;SDS011;46694;54.382;9.708;2023-07-31T04:50:33;10.87;;;9.57;;
60859;SDS011;46694;54.382;9.708;2023-07-31T04:53:13;19.17;;;11.33;;
60859;SDS011;46694;54.382;9.708;2023-07-31T04:55:52;17.10;;;10.30;;
60859;SDS011;46694;54.382;9.708;2023-07-31T04:58:32;16.87;;;10.47;;
60859;SDS011;46694;54.382;9.708;2023-07-31T05:01:12;22.70;;;11.53;;
60859;SDS011;46694;54.382;9.708;2023-07-31T05:03:51;17.17;;;11.50;;
60859;SDS011;46694;54.382;9.708;2023-07-31T05:06:31;19.77;;;12.23;;
60859;SDS011;46694;54.382;9.708;2023-07-31T05:09:10;16.73;;;10.80;;
60859;SDS011;46694;54.382;9.708;2023-07-31T05:11:50;15.00;;;10.30;;
60859;SDS011;46694;54.382;9.708;2023-07-31T05:14:30;16.37;;;10.30;;
60859;SDS011;46694;54.382;9.708;2023-07-31T05:17:09;13.63;;;10.50;;
60859;SDS011;46694;54.382;9.708;2023-07-31T05:19:49;18.10;;;10.30;;
60859;SDS011;46694;54.382;9.708;2023-07-31T05:22:29;15.53;;;10.47;;
60859;SDS011;46694;54.382;9.708;2023-07-31T05:25:08;18.13;;;9.53;;
60859;SDS011;46694;54.382;9.708;2023-07-31T05:27:48;11.47;;;9.57;;
60859;SDS011;46694;54.382;9.708;2023-07-31T05:30:29;18.70;;;8.03;;
60859;SDS011;46694;54.382;9.708;2023-07-31T05:33:09;15.47;;;9.37;;
60859;SDS011;46694;54.382;9.708;2023-07-31T05:35:49;14.30;;;8.97;;
60859;SDS011;46694;54.382;9.708;2023-07-31T05:38:28;10.30;;;8.43;;
60859;SDS011;46694;54.382;9.708;2023-07-31T05:41:08;9.57;;;8.30;;
60859;SDS011;46694;54.382;9.708;2023-07-31T05:43:48;14.53;;;9.27;;
60859;SDS011;46694;54.382;9.708;2023-07-31T05:46:27;13.77;;;8.67;;
60859;SDS011;46694;54.382;9.708;2023-07-31T05:49:07;21.73;;;9.83;;
60859;SDS011;46694;54.382;9.708;2023-07-31T05:51:46;12.13;;;8.70;;
60859;SDS011;46694;54.382;9.708;2023-07-31T05:54:26;15.97;;;9.97;;
60859;SDS011;46694;54.382;9.708;2023-07-31T05:57:05;16.10;;;8.40;;
60859;SDS011;46694;54.382;9.708;2023-07-31T05:59:45;11.90;;;7.87;;
60859;SDS011;46694;54.382;9.708;2023-07-31T06:02:25;11.50;;;8.13;;
60859;SDS011;46694;54.382;9.708;2023-07-31T06:05:04;20.57;;;9.10;;
60859;SDS011;46694;54.382;9.708;2023-07-31T06:07:44;12.17;;;8.93;;
60859;SDS011;46694;54.382;9.708;2023-07-31T06:10:24;47.77;;;8.00;;
60859;SDS011;46694;54.382;9.708;2023-07-31T06:13:04;11.37;;;7.53;;
60859;SDS011;46694;54.382;9.708;2023-07-31T06:15:44;7.87;;;7.10;;
60859;SDS011;46694;54.382;9.708;2023-07-31T06:18:23;11.67;;;6.63;;
60859;SDS011;46694;54.382;9.708;2023-07-31T06:21:03;10.60;;;6.00;;
60859;SDS011;46694;54.382;9.708;2023-07-31T06:23:42;10.53;;;5.30;;
60859;SDS011;46694;54.382;9.708;2023-07-31T06:26:22;12.80;;;5.67;;
60859;SDS011;46694;54.382;9.708;2023-07-31T06:29:01;8.80;;;5.33;;
60859;SDS011;46694;54.382;9.708;2023-07-31T06:31:41;12.17;;;5.40;;
60859;SDS011;46694;54.382;9.708;2023-07-31T06:34:21;9.07;;;5.50;;
60859;SDS011;46694;54.382;9.708;2023-07-31T06:37:00;5.53;;;4.47;;
60859;SDS011;46694;54.382;9.708;2023-07-31T06:39:41;6.80;;;4.27;;
60859;SDS011;46694;54.382;9.708;2023-07-31T06:42:21;9.27;;;4.40;;
60859;SDS011;46694;54.382;9.708;2023-07-31T06:45:01;4.33;;;3.93;;
60859;SDS011;46694;54.382;9.708;2023-07-31T06:47:41;6.93;;;3.33;;
60859;SDS011;46694;54.382;9.708;2023-07-31T06:50:20;3.37;;;3.03;;
60859;SDS011;46694;54.382;9.708;2023-07-31T06:53:00;5.93;;;3.30;;
60859;SDS011;46694;54.382;9.708;2023-07-31T06:55:39;3.83;;;2.80;;
60859;SDS011;46694;54.382;9.708;2023-07-31T06:58:19;7.10;;;3.13;;
60859;SDS011;46694;54.382;9.708;2023-07-31T07:00:59;5.57;;;2.87;;
60859;SDS011;46694;54.382;9.708;2023-07-31T07:03:40;5.13;;;2.50;;
60859;SDS011;46694;54.382;9.708;2023-07-31T07:06:21;6.20;;;1.83;;
60859;SDS011;46694;54.382;9.708;2023-07-31T07:09:02;2.17;;;1.77;;
60859;SDS011;46694;54.382;9.708;2023-07-31T07:11:42;6.47;;;2.40;;
60859;SDS011;46694;54.382;9.708;2023-07-31T07:14:21;3.83;;;1.73;;
60859;SDS011;46694;54.382;9.708;2023-07-31T07:17:01;4.60;;;2.60;;
60859;SDS011;46694;54.382;9.708;2023-07-31T07:19:40;2.17;;;1.50;;
60859;SDS011;46694;54.382;9.708;2023-07-31T07:22:20;1.93;;;1.57;;
60859;SDS011;46694;54.382;9.708;2023-07-31T07:25:00;2.17;;;1.40;;
60859;SDS011;46694;54.382;9.708;2023-07-31T07:27:39;4.17;;;1.30;;
60859;SDS011;46694;54.382;9.708;2023-07-31T07:30:19;2.70;;;1.77;;
60859;SDS011;46694;54.382;9.708;2023-07-31T07:33:05;4.90;;;1.80;;
60859;SDS011;46694;54.382;9.708;2023-07-31T07:35:45;4.93;;;1.30;;
60859;SDS011;46694;54.382;9.708;2023-07-31T07:38:24;3.63;;;1.33;;
60859;SDS011;46694;54.382;9.708;2023-07-31T07:41:04;1.47;;;0.77;;
60859;SDS011;46694;54.382;9.708;2023-07-31T07:43:43;2.33;;;1.10;;
60859;SDS011;46694;54.382;9.708;2023-07-31T07:46:23;1.93;;;1.20;;
60859;SDS011;46694;54.382;9.708;2023-07-31T07:49:02;2.03;;;1.37;;
60859;SDS011;46694;54.382;9.708;2023-07-31T07:51:42;1.10;;;0.93;;
60859;SDS011;46694;54.382;9.708;2023-07-31T07:54:22;2.40;;;1.23;;
60859;SDS011;46694;54.382;9.708;2023-07-31T07:57:02;1.13;;;1.03;;
60859;SDS011;46694;54.382;9.708;2023-07-31T07:59:42;3.37;;;0.90;;
60859;SDS011;46694;54.382;9.708;2023-07-31T08:02:22;1.50;;;1.30;;
60859;SDS011;46694;54.382;9.708;2023-07-31T08:05:01;0.80;;;0.80;;
60859;SDS011;46694;54.382;9.708;2023-07-31T08:07:41;1.27;;;1.17;;
60859;SDS011;46694;54.382;9.708;2023-07-31T08:10:21;1.47;;;1.10;;
60859;SDS011;46694;54.382;9.708;2023-07-31T08:13:01;3.17;;;1.17;;
60859;SDS011;46694;54.382;9.708;2023-07-31T08:15:43;1.00;;;0.90;;
60859;SDS011;46694;54.382;9.708;2023-07-31T08:18:23;1.20;;;1.10;;
60859;SDS011;46694;54.382;9.708;2023-07-31T08:21:03;3.00;;;1.03;;
60859;SDS011;46694;54.382;9.708;2023-07-31T08:23:43;1.47;;;0.97;;
60859;SDS011;46694;54.382;9.708;2023-07-31T08:26:23;1.80;;;1.03;;
60859;SDS011;46694;54.382;9.708;2023-07-31T08:29:03;2.57;;;1.07;;
60859;SDS011;46694;54.382;9.708;2023-07-31T08:31:42;1.77;;;0.90;;
60859;SDS011;46694;54.382;9.708;2023-07-31T08:34:22;1.67;;;1.30;;
60859;SDS011;46694;54.382;9.708;2023-07-31T08:37:02;1.50;;;0.80;;
60859;SDS011;46694;54.382;9.708;2023-07-31T08:39:41;1.00;;;0.80;;
60859;SDS011;46694;54.382;9.708;2023-07-31T08:42:20;2.20;;;1.00;;
60859;SDS011;46694;54.382;9.708;2023-07-31T08:45:00;3.90;;;1.10;;
60859;SDS011;46694;54.382;9.708;2023-07-31T08:47:44;2.50;;;1.00;;
60859;SDS011;46694;54.382;9.708;2023-07-31T08:50:28;2.20;;;1.27;;
60859;SDS011;46694;54.382;9.708;2023-07-31T08:53:08;7.27;;;1.30;;
60859;SDS011;46694;54.382;9.708;2023-07-31T08:55:48;1.20;;;1.10;;
60859;SDS011;46694;54.382;9.708;2023-07-31T08:58:30;2.67;;;1.20;;
60859;SDS011;46694;54.382;9.708;2023-07-31T09:01:11;1.00;;;1.00;;
60859;SDS011;46694;54.382;9.708;2023-07-31T09:03:59;4.53;;;1.30;;
60859;SDS011;46694;54.382;9.708;2023-07-31T09:06:41;2.23;;;1.33;;
60859;SDS011;46694;54.382;9.708;2023-07-31T09:09:22;1.37;;;1.13;;
60859;SDS011;46694;54.382;9.708;2023-07-31T09:12:02;1.53;;;1.20;;
60859;SDS011;46694;54.382;9.708;2023-07-31T09:14:43;1.43;;;1.33;;
60859;SDS011;46694;54.382;9.708;2023-07-31T09:17:35;1.43;;;1.33;;
60859;SDS011;46694;54.382;9.708;2023-07-31T09:20:19;1.23;;;1.13;;
60859;SDS011;46694;54.382;9.708;2023-07-31T09:23:07;1.50;;;1.40;;
60859;SDS011;46694;54.382;9.708;2023-07-31T09:25:52;1.57;;;1.47;;
60859;SDS011;46694;54.382;9.708;2023-07-31T09:28:31;4.10;;;1.60;;
60859;SDS011;46694;54.382;9.708;2023-07-31T09:31:11;2.33;;;1.50;;
60859;SDS011;46694;54.382;9.708;2023-07-31T09:33:54;1.90;;;1.80;;
60859;SDS011;46694;54.382;9.708;2023-07-31T09:39:21;1.50;;;1.40;;
60859;SDS011;46694;54.382;9.708;2023-07-31T09:42:01;2.70;;;1.60;;
60859;SDS011;46694;54.382;9.708;2023-07-31T09:44:41;3.13;;;2.00;;
60859;SDS011;46694;54.382;9.708;2023-07-31T09:47:21;2.63;;;2.00;;
60859;SDS011;46694;54.382;9.708;2023-07-31T09:50:07;1.53;;;1.43;;
60859;SDS011;46694;54.382;9.708;2023-07-31T09:52:48;2.30;;;2.20;;
60859;SDS011;46694;54.382;9.708;2023-07-31T09:55:28;1.97;;;1.73;;
60859;SDS011;46694;54.382;9.708;2023-07-31T09:58:10;2.60;;;2.50;;
60859;SDS011;46694;54.382;9.708;2023-07-31T10:00:51;3.57;;;1.73;;
60859;SDS011;46694;54.382;9.708;2023-07-31T10:03:31;2.23;;;2.10;;
60859;SDS011;46694;54.382;9.708;2023-07-31T10:06:12;4.50;;;2.67;;
60859;SDS011;46694;54.382;9.708;2023-07-31T10:08:54;3.00;;;2.70;;
60859;SDS011;46694;54.382;9.708;2023-07-31T10:11:40;2.77;;;2.57;;
60859;SDS011;46694;54.382;9.708;2023-07-31T10:14:24;5.10;;;2.97;;
60859;SDS011;46694;54.382;9.708;2023-07-31T10:17:07;2.60;;;2.43;;
60859;SDS011;46694;54.382;9.708;2023-07-31T10:19:47;3.40;;;3.00;;
60859;SDS011;46694;54.382;9.708;2023-07-31T10:22:28;2.80;;;2.60;;
60859;SDS011;46694;54.382;9.708;2023-07-31T10:25:09;5.63;;;3.10;;
60859;SDS011;46694;54.382;9.708;2023-07-31T10:27:49;3.73;;;3.47;;
60859;SDS011;46694;54.382;9.708;2023-07-31T10:30:30;4.17;;;3.30;;
60859;SDS011;46694;54.382;9.708;2023-07-31T10:36:19;3.37;;;3.20;;
60859;SDS011;46694;54.382;9.708;2023-07-31T10:38:58;3.90;;;3.53;;
60859;SDS011;46694;54.382;9.708;2023-07-31T10:41:38;3.87;;;3.57;;
60859;SDS011;46694;54.382;9.708;2023-07-31T10:44:19;4.73;;;4.40;;
60859;SDS011;46694;54.382;9.708;2023-07-31T10:46:59;3.47;;;3.27;;
60859;SDS011;46694;54.382;9.708;2023-07-31T10:49:39;5.13;;;4.73;;
60859;SDS011;46694;54.382;9.708;2023-07-31T10:52:19;4.67;;;4.27;;
60859;SDS011;46694;54.382;9.708;2023-07-31T10:58:21;4.47;;;4.17;;
60859;SDS011;46694;54.382;9.708;2023-07-31T11:01:01;3.80;;;3.60;;
60859;SDS011;46694;54.382;9.708;2023-07-31T11:03:45;4.03;;;3.73;;
60859;SDS011;46694;54.382;9.708;2023-07-31T11:06:32;4.93;;;4.53;;
60859;SDS011;46694;54.382;9.708;2023-07-31T11:09:11;4.00;;;3.60;;
60859;SDS011;46694;54.382;9.708;2023-07-31T11:11:53;4.87;;;4.47;;
60859;SDS011;46694;54.382;9.708;2023-07-31T11:14:33;4.57;;;4.20;;
60859;SDS011;46694;54.382;9.708;2023-07-31T11:17:13;4.20;;;3.80;;
60859;SDS011;46694;54.382;9.708;2023-07-31T11:19:52;4.03;;;3.70;;
60859;SDS011;46694;54.382;9.708;2023-07-31T11:22:32;3.37;;;3.07;;
60859;SDS011;46694;54.382;9.708;2023-07-31T11:25:14;3.90;;;3.53;;
60859;SDS011;46694;54.382;9.708;2023-07-31T11:27:55;3.27;;;3.07;;
60859;SDS011;46694;54.382;9.708;2023-07-31T11:30:35;4.33;;;3.23;;
60859;SDS011;46694;54.382;9.708;2023-07-31T11:33:14;3.47;;;3.20;;
60859;SDS011;46694;54.382;9.708;2023-07-31T11:35:54;2.60;;;2.40;;
60859;SDS011;46694;54.382;9.708;2023-07-31T11:38:34;2.40;;;2.20;;
60859;SDS011;46694;54.382;9.708;2023-07-31T11:41:15;3.37;;;2.80;;
60859;SDS011;46694;54.382;9.708;2023-07-31T11:43:59;2.90;;;2.70;;
60859;SDS011;46694;54.382;9.708;2023-07-31T11:46:39;2.57;;;2.37;;
60859;SDS011;46694;54.382;9.708;2023-07-31T11:49:19;5.57;;;2.77;;
60859;SDS011;46694;54.382;9.708;2023-07-31T11:52:00;2.53;;;2.33;;
60859;SDS011;46694;54.382;9.708;2023-07-31T11:54:40;2.50;;;2.40;;
60859;SDS011;46694;54.382;9.708;2023-07-31T11:57:19;2.47;;;2.37;;
60859;SDS011;46694;54.382;9.708;2023-07-31T12:00:00;2.60;;;2.40;;
60859;SDS011;46694;54.382;9.708;2023-07-31T12:02:40;4.10;;;2.20;;
60859;SDS011;46694;54.382;9.708;2023-07-31T12:05:20;3.53;;;2.43;;
60859;SDS011;46694;54.382;9.708;2023-07-31T12:08:01;2.30;;;2.10;;
60859;SDS011;46694;54.382;9.708;2023-07-31T12:10:50;2.83;;;1.67;;
60859;SDS011;46694;54.382;9.708;2023-07-31T12:16:31;6.20;;;3.30;;
60859;SDS011;46694;54.382;9.708;2023-07-31T12:19:11;3.93;;;3.40;;
60859;SDS011;46694;54.382;9.708;2023-07-31T12:21:50;3.10;;;2.80;;
60859;SDS011;46694;54.382;9.708;2023-07-31T12:24:30;3.03;;;2.23;;
60859;SDS011;46694;54.382;9.708;2023-07-31T12:27:13;5.77;;;2.90;;
60859;SDS011;46694;54.382;9.708;2023-07-31T12:29:54;2.50;;;2.30;;
60859;SDS011;46694;54.382;9.708;2023-07-31T12:32:33;3.10;;;2.17;;
60859;SDS011;46694;54.382;9.708;2023-07-31T12:35:15;2.50;;;2.27;;
60859;SDS011;46694;54.382;9.708;2023-07-31T12:38:07;2.67;;;2.47;;
60859;SDS011;46694;54.382;9.708;2023-07-31T12:43:37;3.20;;;2.63;;
60859;SDS011;46694;54.382;9.708;2023-07-31T12:46:18;2.70;;;2.10;;
60859;SDS011;46694;54.382;9.708;2023-07-31T12:48:57;2.80;;;2.30;;
60859;SDS011;46694;54.382;9.708;2023-07-31T12:51:37;2.80;;;2.43;;
60859;SDS011;46694;54.382;9.708;2023-07-31T12:54:17;2.00;;;1.90;;
60859;SDS011;46694;54.382;9.708;2023-07-31T12:56:56;1.70;;;1.60;;
60859;SDS011;46694;54.382;9.708;2023-07-31T12:59:36;4.97;;;1.77;;
60859;SDS011;46694;54.382;9.708;2023-07-31T13:02:15;1.90;;;1.40;;
60859;SDS011;46694;54.382;9.708;2023-07-31T13:05:08;2.93;;;2.17;;
60859;SDS011;46694;54.382;9.708;2023-07-31T13:07:48;1.83;;;1.73;;
60859;SDS011;46694;54.382;9.708;2023-07-31T13:10:28;1.83;;;1.30;;
60859;SDS011;46694;54.382;9.708;2023-07-31T13:13:09;2.20;;;1.63;;
60859;SDS011;46694;54.382;9.708;2023-07-31T13:15:49;2.03;;;1.30;;
60859;SDS011;46694;54.382;9.708;2023-07-31T13:18:28;1.73;;;1.63;;
60859;SDS011;46694;54.382;9.708;2023-07-31T13:21:08;5.20;;;1.10;;
60859;SDS011;46694;54.382;9.708;2023-07-31T13:23:47;2.40;;;1.30;;
60859;SDS011;46694;54.382;9.708;2023-07-31T13:26:27;1.20;;;1.10;;
60859;SDS011;46694;54.382;9.708;2023-07-31T13:29:07;1.40;;;1.00;;
60859;SDS011;46694;54.382;9.708;2023-07-31T13:31:46;1.60;;;1.50;;
60859;SDS011;46694;54.382;9.708;2023-07-31T13:34:26;1.67;;;1.40;;
60859;SDS011;46694;54.382;9.708;2023-07-31T13:37:06;0.80;;;0.80;;
60859;SDS011;46694;54.382;9.708;2023-07-31T13:39:46;1.37;;;1.27;;
60859;SDS011;46694;54.382;9.708;2023-07-31T13:42:25;1.10;;;1.00;;
60859;SDS011;46694;54.382;9.708;2023-07-31T13:45:07;1.53;;;0.93;;
60859;SDS011;46694;54.382;9.708;2023-07-31T13:47:46;1.13;;;1.00;;
60859;SDS011;46694;54.382;9.708;2023-07-31T13:50:26;1.47;;;0.90;;
60859;SDS011;46694;54.382;9.708;2023-07-31T13:53:05;1.07;;;0.83;;
60859;SDS011;46694;54.382;9.708;2023-07-31T13:55:45;1.73;;;0.67;;
60859;SDS011;46694;54.382;9.708;2023-07-31T13:58:24;1.07;;;0.97;;
60859;SDS011;46694;54.382;9.708;2023-07-31T14:01:04;1.30;;;0.90;;
60859;SDS011;46694;54.382;9.708;2023-07-31T14:03:43;1.10;;;1.03;;
60859;SDS011;46694;54.382;9.708;2023-07-31T14:06:23;1.10;;;1.00;;
60859;SDS011;46694;54.382;9.708;2023-07-31T14:09:02;1.00;;;0.90;;
60859;SDS011;46694;54.382;9.708;2023-07-31T14:11:42;0.83;;;0.83;;
60859;SDS011;46694;54.382;9.708;2023-07-31T14:14:21;1.00;;;0.93;;
60859;SDS011;46694;54.382;9.708;2023-07-31T14:17:01;1.20;;;0.93;;
60859;SDS011;46694;54.382;9.708;2023-07-31T14:19:41;1.20;;;0.80;;
60859;SDS011;46694;54.382;9.708;2023-07-31T14:22:27;1.37;;;0.90;;
60859;SDS011;46694;54.382;9.708;2023-07-31T14:25:12;2.70;;;0.80;;
60859;SDS011;46694;54.382;9.708;2023-07-31T14:27:52;1.10;;;1.00;;
60859;SDS011;46694;54.382;9.708;2023-07-31T14:30:31;3.30;;;1.40;;
60859;SDS011;46694;54.382;9.708;2023-07-31T14:33:11;1.63;;;1.00;;
60859;SDS011;46694;54.382;9.708;2023-07-31T14:35:51;2.00;;;0.97;;
60859;SDS011;46694;54.382;9.708;2023-07-31T14:38:31;1.00;;;0.90;;
60859;SDS011;46694;54.382;9.708;2023-07-31T14:41:10;1.00;;;0.77;;
60859;SDS011;46694;54.382;9.708;2023-07-31T14:43:50;1.90;;;0.80;;
60859;SDS011;46694;54.382;9.708;2023-07-31T14:46:29;0.87;;;0.77;;
60859;SDS011;46694;54.382;9.708;2023-07-31T14:49:09;0.93;;;0.90;;
60859;SDS011;46694;54.382;9.708;2023-07-31T14:51:49;3.63;;;0.80;;
60859;SDS011;46694;54.382;9.708;2023-07-31T14:54:28;1.33;;;1.07;;
60859;SDS011;46694;54.382;9.708;2023-07-31T14:57:08;3.93;;;1.07;;
60859;SDS011;46694;54.382;9.708;2023-07-31T14:59:47;0.80;;;0.80;;
60859;SDS011;46694;54.382;9.708;2023-07-31T15:02:27;0.77;;;0.60;;
60859;SDS011;46694;54.382;9.708;2023-07-31T15:05:07;4.40;;;1.17;;
60859;SDS011;46694;54.382;9.708;2023-07-31T15:07:47;2.53;;;1.17;;
60859;SDS011;46694;54.382;9.708;2023-07-31T15:10:27;1.20;;;0.87;;
60859;SDS011;46694;54.382;9.708;2023-07-31T15:13:06;0.93;;;0.80;;
60859;SDS011;46694;54.382;9.708;2023-07-31T15:15:46;1.20;;;1.10;;
60859;SDS011;46694;54.382;9.708;2023-07-31T15:18:25;1.40;;;0.90;;
60859;SDS011;46694;54.382;9.708;2023-07-31T15:21:06;1.10;;;1.10;;
60859;SDS011;46694;54.382;9.708;2023-07-31T15:23:47;0.93;;;0.93;;
60859;SDS011;46694;54.382;9.708;2023-07-31T15:26:27;0.90;;;0.70;;
60859;SDS011;46694;54.382;9.708;2023-07-31T15:29:06;0.90;;;0.90;;
60859;SDS011;46694;54.382;9.708;2023-07-31T15:31:57;4.13;;;0.80;;
60859;SDS011;46694;54.382;9.708;2023-07-31T15:34:38;1.57;;;1.10;;
60859;SDS011;46694;54.382;9.708;2023-07-31T15:37:17;3.37;;;1.30;;
60859;SDS011;46694;54.382;9.708;2023-07-31T15:39:57;1.40;;;0.90;;
60859;SDS011;46694;54.382;9.708;2023-07-31T15:42:37;2.37;;;1.10;;
60859;SDS011;46694;54.382;9.708;2023-07-31T15:45:18;1.67;;;1.53;;
60859;SDS011;46694;54.382;9.708;2023-07-31T15:47:58;2.07;;;0.80;;
60859;SDS011;46694;54.382;9.708;2023-07-31T15:50:37;1.20;;;0.90;;
60859;SDS011;46694;54.382;9.708;2023-07-31T15:53:17;1.20;;;0.90;;
60859;SDS011;46694;54.382;9.708;2023-07-31T15:55:56;1.30;;;1.00;;
60859;SDS011;46694;54.382;9.708;2023-07-31T15:58:36;2.40;;;0.83;;
60859;SDS011;46694;54.382;9.708;2023-07-31T16:01:16;0.90;;;0.90;;
60859;SDS011;46694;54.382;9.708;2023-07-31T16:03:55;0.90;;;0.90;;
60859;SDS011;46694;54.382;9.708;2023-07-31T16:06:35;1.93;;;0.80;;
60859;SDS011;46694;54.382;9.708;2023-07-31T16:12:04;1.27;;;1.17;;
60859;SDS011;46694;54.382;9.708;2023-07-31T16:14:45;1.30;;;1.20;;
60859;SDS011;46694;54.382;9.708;2023-07-31T16:17:24;1.07;;;0.70;;
60859;SDS011;46694;54.382;9.708;2023-07-31T16:20:04;1.00;;;0.90;;
60859;SDS011;46694;54.382;9.708;2023-07-31T16:22:48;1.57;;;0.90;;
60859;SDS011;46694;54.382;9.708;2023-07-31T16:25:28;1.93;;;1.50;;
60859;SDS011;46694;54.382;9.708;2023-07-31T16:28:07;0.80;;;0.70;;